createdAt,value
2023-05-02T00:01:19.618Z,7.50
2023-05-02T00:03:46.579Z,7.50
2023-05-02T00:06:13.641Z,7.40
2023-05-02T00:08:40.621Z,7.40
2023-05-02T00:11:07.511Z,7.40
2023-05-02T00:13:34.347Z,7.30
2023-05-02T00:16:01.571Z,7.40
2023-05-02T00:18:28.420Z,7.40
2023-05-02T00:20:56.584Z,7.50
2023-05-02T00:23:23.996Z,7.50
2023-05-02T00:25:50.951Z,7.60
2023-05-02T00:28:18.270Z,7.70
2023-05-02T00:30:46.226Z,7.80
2023-05-02T00:33:14.445Z,7.80
2023-05-02T00:35:41.483Z,8.00
2023-05-02T00:38:08.299Z,8.00
2023-05-02T00:40:49.004Z,8.10
2023-05-02T00:43:16.713Z,8.10
2023-05-02T00:45:46.244Z,8.10
2023-05-02T00:48:13.707Z,8.10
2023-05-02T00:50:42.296Z,8.20
2023-05-02T00:53:12.137Z,8.20
2023-05-02T00:55:38.997Z,8.20
2023-05-02T00:58:09.041Z,8.20
2023-05-02T01:00:48.246Z,8.20
2023-05-02T01:03:44.009Z,8.20
2023-05-02T01:06:11.043Z,8.30
2023-05-02T01:08:52.795Z,8.30
2023-05-02T01:11:47.836Z,8.30
2023-05-02T01:14:15.551Z,8.30
2023-05-02T01:16:45.755Z,8.40
2023-05-02T01:19:36.249Z,8.40
2023-05-02T01:22:07.927Z,8.30
2023-05-02T01:25:02.703Z,8.30
2023-05-02T01:27:48.136Z,8.30
2023-05-02T01:30:18.000Z,8.20
2023-05-02T01:32:47.253Z,8.20
2023-05-02T01:35:18.322Z,8.30
2023-05-02T01:37:46.890Z,8.30
2023-05-02T01:40:18.137Z,8.30
2023-05-02T01:42:46.815Z,8.30
2023-05-02T01:45:14.672Z,8.30
2023-05-02T01:47:43.904Z,8.20
2023-05-02T01:50:16.863Z,8.20
2023-05-02T01:52:45.730Z,8.20
2023-05-02T01:55:15.428Z,8.10
2023-05-02T01:57:44.430Z,8.00
2023-05-02T02:00:12.867Z,7.90
2023-05-02T02:02:45.395Z,7.90
2023-05-02T02:05:14.140Z,7.80
2023-05-02T02:07:40.955Z,7.70
2023-05-02T02:10:08.367Z,7.70
2023-05-02T02:13:07.646Z,7.60
2023-05-02T02:15:38.126Z,7.60
2023-05-02T02:18:13.642Z,7.60
2023-05-02T02:20:43.878Z,7.50
2023-05-02T02:23:12.128Z,7.50
2023-05-02T02:25:39.668Z,7.50
2023-05-02T02:28:07.746Z,7.40
2023-05-02T02:30:34.683Z,7.50
2023-05-02T02:33:01.605Z,7.40
2023-05-02T02:35:53.762Z,7.50
2023-05-02T02:38:46.631Z,7.40
2023-05-02T02:41:22.638Z,7.50
2023-05-02T02:44:05.979Z,7.50
2023-05-02T02:46:54.785Z,7.50
2023-05-02T02:49:37.720Z,7.50
2023-05-02T02:52:04.471Z,7.50
2023-05-02T02:54:47.147Z,7.50
2023-05-02T02:57:35.740Z,7.60
2023-05-02T03:00:05.761Z,7.80
2023-05-02T03:02:33.936Z,8.00
2023-05-02T03:05:02.509Z,8.10
2023-05-02T03:07:30.118Z,8.20
2023-05-02T03:09:56.948Z,8.30
2023-05-02T03:12:23.854Z,8.40
2023-05-02T03:14:51.190Z,8.50
2023-05-02T03:17:18.158Z,8.50
2023-05-02T03:19:45.002Z,8.60
2023-05-02T03:22:11.819Z,8.70
2023-05-02T03:24:38.635Z,8.80
2023-05-02T03:27:05.475Z,8.90
2023-05-02T03:29:32.297Z,8.90
2023-05-02T03:31:59.165Z,9.00
2023-05-02T03:34:26.040Z,9.00
2023-05-02T03:36:52.874Z,9.00
2023-05-02T03:39:19.713Z,9.10
2023-05-02T03:41:46.535Z,9.10
2023-05-02T03:44:13.734Z,9.10
2023-05-02T03:46:40.647Z,9.20
2023-05-02T03:49:08.052Z,9.30
2023-05-02T03:51:35.627Z,9.30
2023-05-02T03:54:02.905Z,9.30
2023-05-02T03:56:29.841Z,9.40
2023-05-02T03:58:56.746Z,9.40
2023-05-02T04:01:23.774Z,9.40
2023-05-02T04:03:53.582Z,9.40
2023-05-02T04:06:20.542Z,9.40
2023-05-02T04:08:47.407Z,9.40
2023-05-02T04:11:14.887Z,9.40
2023-05-02T04:13:41.692Z,9.40
2023-05-02T04:16:09.353Z,9.40
2023-05-02T04:18:36.136Z,9.40
2023-05-02T04:21:03.208Z,9.40
2023-05-02T04:23:30.049Z,9.30
2023-05-02T04:25:56.892Z,9.00
2023-05-02T04:28:24.084Z,8.70
2023-05-02T04:30:51.610Z,8.60
2023-05-02T04:33:18.977Z,8.40
2023-05-02T04:35:46.086Z,8.20
2023-05-02T04:38:13.028Z,8.00
2023-05-02T04:40:40.168Z,7.90
2023-05-02T04:43:07.498Z,7.90
2023-05-02T04:45:37.409Z,7.90
2023-05-02T04:48:04.897Z,7.90
2023-05-02T04:50:32.420Z,7.90
2023-05-02T04:52:59.530Z,7.80
2023-05-02T04:55:26.470Z,7.90
2023-05-02T04:57:53.352Z,7.90
2023-05-02T05:00:20.264Z,7.90
2023-05-02T05:02:47.358Z,7.80
2023-05-02T05:05:14.454Z,7.70
2023-05-02T05:07:41.362Z,7.70
2023-05-02T05:10:08.741Z,7.70
2023-05-02T05:12:35.503Z,7.70
2023-05-02T05:15:02.296Z,7.70
2023-05-02T05:17:29.083Z,7.80
2023-05-02T05:19:56.072Z,7.80
2023-05-02T05:22:22.833Z,7.80
2023-05-02T05:24:56.009Z,7.80
2023-05-02T05:27:23.125Z,7.80
2023-05-02T05:29:50.031Z,7.70
2023-05-02T05:32:16.819Z,7.70
2023-05-02T05:34:43.727Z,7.70
2023-05-02T05:37:10.726Z,7.70
2023-05-02T05:39:37.936Z,7.60
2023-05-02T05:42:06.031Z,7.70
2023-05-02T05:44:32.803Z,7.80
2023-05-02T05:46:59.724Z,7.80
2023-05-02T05:49:26.529Z,7.90
2023-05-02T05:51:53.471Z,7.80
2023-05-02T05:54:20.231Z,7.90
2023-05-02T05:56:47.298Z,7.90
2023-05-02T05:59:14.366Z,7.90
2023-05-02T06:01:41.225Z,7.80
2023-05-02T06:04:08.495Z,7.70
2023-05-02T06:06:35.477Z,7.70
2023-05-02T06:09:02.478Z,7.70
2023-05-02T06:11:29.498Z,7.70
2023-05-02T06:13:56.558Z,7.60
2023-05-02T06:16:23.539Z,7.60
2023-05-02T06:18:52.793Z,7.50
2023-05-02T06:21:19.816Z,7.50
2023-05-02T06:23:46.881Z,7.50
2023-05-02T06:26:13.772Z,7.50
2023-05-02T06:28:40.538Z,7.60
2023-05-02T06:31:07.499Z,7.90
2023-05-02T06:33:34.763Z,8.00
2023-05-02T06:36:02.303Z,7.90
2023-05-02T06:38:29.946Z,7.90
2023-05-02T06:40:56.881Z,8.00
2023-05-02T06:43:23.762Z,8.10
2023-05-02T06:45:54.247Z,8.20
2023-05-02T06:48:21.675Z,8.20
2023-05-02T06:50:49.716Z,8.40
2023-05-02T06:53:16.922Z,8.30
2023-05-02T06:55:45.777Z,8.50
2023-05-02T06:58:12.806Z,8.50
2023-05-02T07:00:39.698Z,8.40
2023-05-02T07:03:06.739Z,8.40
2023-05-02T07:05:33.548Z,8.60
2023-05-02T07:08:00.321Z,8.60
2023-05-02T07:10:27.095Z,8.60
2023-05-02T07:12:53.951Z,9.10
2023-05-02T07:15:21.058Z,9.60
2023-05-02T07:17:48.464Z,10.30
2023-05-02T07:20:16.428Z,10.20
2023-05-02T07:22:43.515Z,9.90
2023-05-02T07:25:10.749Z,9.50
2023-05-02T07:27:37.553Z,9.50
2023-05-02T07:30:05.685Z,9.40
2023-05-02T07:32:32.641Z,9.30
2023-05-02T07:34:59.553Z,9.30
2023-05-02T07:37:26.398Z,9.10
2023-05-02T07:39:53.256Z,9.10
2023-05-02T07:42:20.117Z,9.10
2023-05-02T07:44:46.890Z,9.00
2023-05-02T07:47:13.703Z,9.10
2023-05-02T07:49:40.517Z,9.00
2023-05-02T07:52:07.294Z,9.40
2023-05-02T07:54:34.190Z,9.30
2023-05-02T07:57:03.336Z,9.00
2023-05-02T07:59:31.417Z,9.10
2023-05-02T08:01:58.547Z,9.60
2023-05-02T08:04:25.905Z,10.20
2023-05-02T08:06:52.979Z,10.40
2023-05-02T08:09:19.872Z,10.50
2023-05-02T08:11:47.285Z,10.20
2023-05-02T08:14:16.006Z,9.90
2023-05-02T08:16:44.758Z,10.20
2023-05-02T08:19:13.084Z,10.20
2023-05-02T08:21:39.879Z,10.00
2023-05-02T08:24:06.855Z,10.10
2023-05-02T08:26:33.793Z,11.00
2023-05-02T08:29:01.030Z,11.40
2023-05-02T08:31:27.923Z,11.00
2023-05-02T08:33:54.756Z,10.90
2023-05-02T08:36:21.497Z,11.20
2023-05-02T08:38:48.926Z,11.00
2023-05-02T08:41:17.808Z,10.80
2023-05-02T08:43:48.303Z,10.80
2023-05-02T08:46:16.637Z,11.30
2023-05-02T08:48:45.425Z,11.50
2023-05-02T08:51:14.094Z,10.90
2023-05-02T08:53:41.838Z,10.70
2023-05-02T08:56:10.513Z,11.60
2023-05-02T08:58:41.612Z,11.80
2023-05-02T09:01:18.988Z,11.40
2023-05-02T09:03:47.699Z,12.20
2023-05-02T09:06:19.777Z,12.40
2023-05-02T09:08:53.209Z,12.50
2023-05-02T09:11:21.335Z,12.70
2023-05-02T09:13:50.708Z,13.40
2023-05-02T09:16:22.922Z,14.00
2023-05-02T09:18:50.727Z,12.90
2023-05-02T09:21:21.024Z,12.80
2023-05-02T09:24:01.694Z,12.30
2023-05-02T09:26:32.433Z,11.50
2023-05-02T09:29:05.046Z,12.00
2023-05-02T09:31:54.876Z,12.70
2023-05-02T09:34:22.345Z,12.70
2023-05-02T09:36:51.929Z,11.80
2023-05-02T09:39:25.502Z,11.80
2023-05-02T09:41:53.084Z,11.90
2023-05-02T09:44:22.823Z,11.90
2023-05-02T09:46:52.843Z,12.90
2023-05-02T09:49:20.684Z,13.70
2023-05-02T09:51:48.342Z,13.40
2023-05-02T09:54:34.085Z,14.00
2023-05-02T09:57:01.894Z,13.00
2023-05-02T09:59:28.718Z,12.60
2023-05-02T10:02:00.200Z,12.10
2023-05-02T10:04:28.413Z,12.00
2023-05-02T10:06:56.236Z,12.80
2023-05-02T10:09:23.762Z,14.30
2023-05-02T10:11:53.566Z,14.90
2023-05-02T10:14:22.667Z,14.30
2023-05-02T10:16:52.707Z,13.70
2023-05-02T10:19:25.926Z,14.80
2023-05-02T10:21:54.831Z,14.60
2023-05-02T10:24:21.736Z,14.00
2023-05-02T10:26:48.829Z,14.30
2023-05-02T10:29:15.843Z,14.10
2023-05-02T10:31:44.967Z,13.80
2023-05-02T10:34:13.393Z,13.90
2023-05-02T10:36:40.803Z,14.70
2023-05-02T10:39:08.219Z,15.90
2023-05-02T10:41:37.645Z,17.00
2023-05-02T10:44:07.834Z,16.50
2023-05-02T10:46:43.211Z,15.10
2023-05-02T10:49:12.017Z,14.80
2023-05-02T10:51:41.232Z,14.10
2023-05-02T10:54:17.729Z,14.20
2023-05-02T10:57:08.881Z,16.00
2023-05-02T10:59:39.706Z,16.20
2023-05-02T11:02:30.911Z,15.60
2023-05-02T11:05:05.834Z,14.70
2023-05-02T11:07:35.085Z,15.60
2023-05-02T11:10:26.364Z,16.30
2023-05-02T11:12:55.353Z,15.40
2023-05-02T11:15:28.777Z,14.90
2023-05-02T11:18:09.344Z,14.80
2023-05-02T11:20:39.557Z,15.40
2023-05-02T11:23:15.710Z,16.80
2023-05-02T11:25:56.800Z,16.50
2023-05-02T11:28:39.213Z,16.90
2023-05-02T11:31:08.044Z,18.10
2023-05-02T11:33:35.052Z,18.10
2023-05-02T11:36:02.305Z,18.10
2023-05-02T11:38:37.742Z,18.10
2023-05-02T11:41:05.175Z,17.00
2023-05-02T11:43:32.769Z,18.50
2023-05-02T11:46:01.592Z,18.50
2023-05-02T11:48:29.099Z,17.10
2023-05-02T11:51:02.040Z,17.50
2023-05-02T11:53:29.818Z,17.50
2023-05-02T11:56:02.377Z,16.10
2023-05-02T11:58:32.543Z,16.60
2023-05-02T12:01:13.004Z,16.90
2023-05-02T12:03:40.707Z,16.20
2023-05-02T12:06:16.019Z,16.60
2023-05-02T12:08:44.361Z,16.40
2023-05-02T12:11:15.659Z,16.30
2023-05-02T12:13:50.283Z,16.20
2023-05-02T12:16:18.469Z,17.10
2023-05-02T12:18:46.640Z,16.80
2023-05-02T12:21:13.772Z,17.60
2023-05-02T12:23:42.149Z,18.80
2023-05-02T12:26:22.529Z,19.40
2023-05-02T12:28:51.272Z,20.60
2023-05-02T12:31:18.451Z,20.80
2023-05-02T12:33:51.066Z,19.90
2023-05-02T12:36:19.215Z,20.00
2023-05-02T12:38:54.879Z,20.50
2023-05-02T12:41:35.203Z,19.20
2023-05-02T12:44:02.551Z,17.70
2023-05-02T12:46:29.694Z,17.40
2023-05-02T12:49:08.293Z,17.80
2023-05-02T12:51:36.562Z,18.50
2023-05-02T12:54:04.013Z,18.50
2023-05-02T12:56:34.588Z,18.70
2023-05-02T12:59:04.051Z,18.70
2023-05-02T13:01:32.552Z,19.50
2023-05-02T13:03:59.450Z,19.90
2023-05-02T13:06:26.417Z,19.90
2023-05-02T13:08:53.193Z,19.80
2023-05-02T13:11:20.563Z,18.50
2023-05-02T13:13:47.345Z,19.50
2023-05-02T13:16:14.331Z,19.80
2023-05-02T13:18:41.350Z,20.50
2023-05-02T13:21:08.227Z,20.50
2023-05-02T13:23:34.991Z,20.00
2023-05-02T13:26:01.901Z,19.20
2023-05-02T13:28:33.104Z,17.90
2023-05-02T13:30:59.983Z,17.80
2023-05-02T13:33:26.817Z,18.00
2023-05-02T13:35:53.652Z,17.90
2023-05-02T13:38:20.405Z,18.30
2023-05-02T13:40:47.481Z,17.80
2023-05-02T13:43:14.632Z,17.10
2023-05-02T13:45:41.941Z,17.20
2023-05-02T13:48:08.753Z,17.10
2023-05-02T13:50:37.331Z,17.60
2023-05-02T13:53:04.217Z,17.40
2023-05-02T13:55:31.727Z,17.40
2023-05-02T13:57:58.535Z,17.50
2023-05-02T14:00:25.458Z,17.30
2023-05-02T14:02:52.889Z,17.30
2023-05-02T14:05:20.062Z,17.30
2023-05-02T14:07:47.168Z,16.60
2023-05-02T14:10:13.957Z,16.20
2023-05-02T14:12:40.709Z,16.80
2023-05-02T14:15:08.289Z,17.00
2023-05-02T14:17:35.138Z,17.00
2023-05-02T14:20:02.112Z,17.00
2023-05-02T14:22:29.135Z,17.00
2023-05-02T14:24:56.093Z,17.20
2023-05-02T14:27:23.023Z,17.00
2023-05-02T14:29:49.817Z,17.50
2023-05-02T14:32:17.111Z,17.50
2023-05-02T14:34:43.874Z,17.60
2023-05-02T14:37:10.765Z,17.30
2023-05-02T14:39:37.602Z,16.10
2023-05-02T14:42:04.679Z,15.80
2023-05-02T14:44:31.783Z,15.10
2023-05-02T14:46:58.694Z,15.80
2023-05-02T14:49:25.785Z,16.60
2023-05-02T14:51:52.827Z,17.00
2023-05-02T14:54:20.351Z,16.50
2023-05-02T14:56:48.182Z,15.40
2023-05-02T14:59:15.039Z,14.90
2023-05-02T15:01:41.955Z,15.40
2023-05-02T15:04:09.094Z,16.30
2023-05-02T15:06:37.037Z,16.90
2023-05-02T15:09:04.907Z,17.40
2023-05-02T15:11:31.940Z,17.70
2023-05-02T15:13:59.400Z,17.20
2023-05-02T15:16:27.359Z,16.40
2023-05-02T15:18:55.332Z,15.70
2023-05-02T15:21:22.198Z,15.50
2023-05-02T15:23:48.972Z,16.10
2023-05-02T15:26:15.737Z,16.40
2023-05-02T15:28:42.633Z,15.80
2023-05-02T15:31:09.373Z,15.20
2023-05-02T15:33:37.473Z,14.80
2023-05-02T15:36:04.476Z,15.30
2023-05-02T15:38:31.303Z,15.50
2023-05-02T15:41:00.064Z,15.80
2023-05-02T15:43:27.312Z,15.70
2023-05-02T15:45:55.312Z,15.50
2023-05-02T15:48:23.513Z,15.50
2023-05-02T15:50:51.232Z,15.40
2023-05-02T15:53:19.118Z,15.50
2023-05-02T15:55:46.417Z,15.30
2023-05-02T15:58:13.741Z,15.10
2023-05-02T16:00:40.576Z,14.90
2023-05-02T16:03:07.529Z,14.90
2023-05-02T16:05:35.291Z,14.80
2023-05-02T16:08:02.698Z,15.10
2023-05-02T16:10:29.634Z,15.20
2023-05-02T16:12:56.649Z,14.80
2023-05-02T16:15:23.997Z,14.20
2023-05-02T16:17:51.036Z,14.40
2023-05-02T16:20:18.722Z,14.20
2023-05-02T16:22:46.834Z,13.90
2023-05-02T16:25:14.934Z,13.90
2023-05-02T16:27:41.740Z,13.90
2023-05-02T16:30:09.448Z,13.70
2023-05-02T16:32:37.404Z,13.70
2023-05-02T16:35:07.246Z,13.60
2023-05-02T16:37:37.107Z,13.50
2023-05-02T16:40:05.887Z,13.60
2023-05-02T16:42:34.005Z,13.60
2023-05-02T16:45:01.061Z,13.60
2023-05-02T16:47:28.529Z,13.60
2023-05-02T16:49:56.094Z,13.60
2023-05-02T16:52:23.114Z,13.50
2023-05-02T16:54:50.074Z,13.50
2023-05-02T16:57:21.122Z,13.30
2023-05-02T16:59:50.261Z,13.30
2023-05-02T17:02:19.216Z,13.10
2023-05-02T17:04:46.126Z,12.60
2023-05-02T17:07:12.964Z,12.30
2023-05-02T17:09:41.472Z,12.10
2023-05-02T17:12:12.742Z,12.10
2023-05-02T17:14:42.506Z,12.20
2023-05-02T17:17:10.281Z,12.10
2023-05-02T17:19:37.324Z,11.90
2023-05-02T17:22:05.257Z,11.70
2023-05-02T17:24:33.088Z,11.60
2023-05-02T17:27:00.174Z,11.60
2023-05-02T17:29:27.543Z,11.50
2023-05-02T17:31:56.920Z,11.30
2023-05-02T17:34:28.391Z,11.10
2023-05-02T17:36:55.899Z,11.10
2023-05-02T17:39:23.262Z,11.00
2023-05-02T17:41:50.285Z,10.90
2023-05-02T17:44:17.215Z,10.80
2023-05-02T17:46:44.200Z,10.60
2023-05-02T17:49:11.569Z,10.60
2023-05-02T17:51:38.404Z,10.50
2023-05-02T17:54:05.266Z,10.40
2023-05-02T17:56:35.106Z,10.30
2023-05-02T17:59:01.993Z,10.20
2023-05-02T18:01:29.035Z,10.10
2023-05-02T18:03:55.972Z,10.00
2023-05-02T18:06:23.015Z,9.90
2023-05-02T18:08:50.047Z,9.90
2023-05-02T18:11:18.282Z,9.80
2023-05-02T18:13:45.727Z,9.80
2023-05-02T18:16:14.017Z,9.70
2023-05-02T18:18:41.352Z,9.60
2023-05-02T18:21:09.698Z,9.60
2023-05-02T18:23:36.699Z,9.50
2023-05-02T18:26:03.971Z,9.50
2023-05-02T18:28:30.805Z,9.50
2023-05-02T18:30:57.694Z,9.40
2023-05-02T18:33:24.555Z,9.30
2023-05-02T18:35:51.366Z,9.30
2023-05-02T18:38:18.156Z,9.20
2023-05-02T18:40:45.154Z,9.10
2023-05-02T18:43:12.091Z,9.10
2023-05-02T18:45:38.872Z,9.00
2023-05-02T18:48:06.029Z,9.00
2023-05-02T18:50:33.123Z,8.90
2023-05-02T18:53:00.019Z,8.80
2023-05-02T18:55:26.811Z,8.70
2023-05-02T18:57:53.696Z,8.70
2023-05-02T19:00:20.921Z,8.60
2023-05-02T19:02:51.013Z,8.60
2023-05-02T19:05:17.991Z,8.50
2023-05-02T19:07:44.941Z,8.50
2023-05-02T19:10:12.346Z,8.40
2023-05-02T19:12:39.573Z,8.40
2023-05-02T19:15:07.962Z,8.40
2023-05-02T19:17:35.180Z,8.30
2023-05-02T19:20:02.217Z,8.20
2023-05-02T19:22:30.423Z,8.20
2023-05-02T19:24:57.566Z,8.10
2023-05-02T19:27:24.449Z,8.00
2023-05-02T19:29:54.144Z,8.00
2023-05-02T19:32:25.058Z,8.00
2023-05-02T19:34:51.952Z,7.90
2023-05-02T19:37:18.813Z,7.90
2023-05-02T19:39:46.817Z,7.90
2023-05-02T19:42:13.707Z,7.90
2023-05-02T19:44:40.684Z,7.90
2023-05-02T19:47:07.921Z,8.00
2023-05-02T19:49:35.166Z,8.00
2023-05-02T19:52:02.131Z,8.00
2023-05-02T19:54:29.118Z,8.00
2023-05-02T19:56:55.918Z,8.00
2023-05-02T19:59:22.733Z,7.90
2023-05-02T20:01:50.147Z,7.90
2023-05-02T20:04:16.998Z,7.90
2023-05-02T20:06:43.955Z,7.90
2023-05-02T20:09:11.425Z,7.90
2023-05-02T20:11:38.198Z,7.80
2023-05-02T20:14:05.054Z,7.90
2023-05-02T20:16:32.488Z,7.90
2023-05-02T20:18:59.479Z,7.80
2023-05-02T20:21:26.891Z,7.80
2023-05-02T20:23:53.769Z,7.80
2023-05-02T20:26:43.228Z,7.70
2023-05-02T20:29:10.653Z,7.60
2023-05-02T20:31:37.476Z,7.50
2023-05-02T20:34:04.658Z,7.50
2023-05-02T20:36:32.201Z,7.40
2023-05-02T20:38:59.156Z,7.40
2023-05-02T20:41:29.348Z,7.30
2023-05-02T20:43:57.007Z,7.30
2023-05-02T20:46:23.932Z,7.20
2023-05-02T20:48:50.940Z,7.20
2023-05-02T20:51:17.751Z,7.20
2023-05-02T20:53:44.781Z,7.10
2023-05-02T20:56:11.631Z,7.10
2023-05-02T20:58:38.426Z,7.00
2023-05-02T21:01:05.787Z,6.90
2023-05-02T21:03:36.553Z,6.90
2023-05-02T21:06:03.639Z,6.80
2023-05-02T21:08:30.596Z,6.80
2023-05-02T21:10:57.405Z,6.70
2023-05-02T21:13:24.134Z,6.80
2023-05-02T21:15:51.116Z,6.70
2023-05-02T21:18:18.067Z,6.70
2023-05-02T21:20:46.732Z,6.60
2023-05-02T21:23:13.534Z,6.60
2023-05-02T21:25:40.353Z,6.50
2023-05-02T21:28:07.386Z,6.50
2023-05-02T21:30:35.302Z,6.40
2023-05-02T21:33:02.236Z,6.40
2023-05-02T21:35:33.177Z,6.40
2023-05-02T21:38:00.609Z,6.40
2023-05-02T21:40:28.667Z,6.30
2023-05-02T21:42:55.681Z,6.30
2023-05-02T21:45:22.455Z,6.30
2023-05-02T21:47:49.182Z,6.30
2023-05-02T21:50:16.189Z,6.20
2023-05-02T21:52:46.446Z,6.10
2023-05-02T21:55:13.251Z,6.10
2023-05-02T21:57:40.968Z,6.00
2023-05-02T22:00:11.460Z,5.90
2023-05-02T22:02:38.234Z,5.80
2023-05-02T22:05:05.403Z,5.70
2023-05-02T22:07:32.411Z,5.70
2023-05-02T22:09:59.194Z,5.60
2023-05-02T22:12:26.851Z,5.50
2023-05-02T22:14:53.651Z,5.40
2023-05-02T22:17:22.784Z,5.30
2023-05-02T22:19:52.902Z,5.30
2023-05-02T22:22:19.738Z,5.20
2023-05-02T22:24:46.453Z,5.20
2023-05-02T22:27:13.199Z,5.20
2023-05-02T22:29:40.107Z,5.20
2023-05-02T22:32:06.926Z,5.10
2023-05-02T22:34:33.780Z,5.10
2023-05-02T22:37:00.776Z,5.00
2023-05-02T22:39:27.856Z,5.00
2023-05-02T22:41:54.701Z,4.90
2023-05-02T22:44:21.416Z,4.90
2023-05-02T22:46:48.354Z,4.80
2023-05-02T22:49:15.752Z,4.80
2023-05-02T22:51:42.657Z,4.70
2023-05-02T22:54:10.210Z,4.70
2023-05-02T22:56:37.030Z,4.70
2023-05-02T22:59:03.798Z,4.60
2023-05-02T23:01:30.711Z,4.60
2023-05-02T23:03:57.855Z,4.60
2023-05-02T23:06:24.837Z,4.60
2023-05-02T23:08:51.614Z,4.60
2023-05-02T23:11:18.396Z,4.50
2023-05-02T23:13:45.255Z,4.50
2023-05-02T23:16:12.161Z,4.50
2023-05-02T23:18:38.973Z,4.40
2023-05-02T23:21:13.270Z,4.40
2023-05-02T23:23:40.334Z,4.40
2023-05-02T23:26:08.815Z,4.40
2023-05-02T23:28:35.579Z,4.30
2023-05-02T23:31:03.575Z,4.30
2023-05-02T23:33:31.701Z,4.20
2023-05-02T23:35:59.011Z,4.20
2023-05-02T23:38:26.195Z,4.20
2023-05-02T23:40:53.222Z,4.10
2023-05-02T23:43:21.885Z,4.10
2023-05-02T23:45:48.650Z,4.00
2023-05-02T23:48:15.632Z,4.00
2023-05-02T23:50:42.741Z,3.90
2023-05-02T23:53:09.474Z,3.90
2023-05-02T23:55:36.546Z,3.90
2023-05-02T23:58:03.424Z,3.90
